createdAt,value
2022-10-15T00:09:07.734Z,13.98
2022-10-15T00:14:12.155Z,17.35
2022-10-15T00:19:10.342Z,12.68
2022-10-15T00:24:10.169Z,13.52
2022-10-15T00:29:17.580Z,10.23
2022-10-15T00:34:15.449Z,12.75
2022-10-15T00:39:15.813Z,13.32
2022-10-15T00:44:47.771Z,11.65
2022-10-15T00:50:01.490Z,8.90
2022-10-15T00:55:03.243Z,8.00
2022-10-15T01:00:07.355Z,11.55
2022-10-15T01:05:06.347Z,8.32
2022-10-15T01:10:05.473Z,9.45
2022-10-15T01:15:10.318Z,12.68
2022-10-15T01:20:45.524Z,9.27
2022-10-15T01:26:23.694Z,12.13
2022-10-15T01:31:35.728Z,9.23
2022-10-15T01:36:38.091Z,10.32
2022-10-15T01:41:41.623Z,12.52
2022-10-15T01:47:02.980Z,11.55
2022-10-15T01:52:06.597Z,14.85
2022-10-15T01:57:05.685Z,13.30
2022-10-15T02:02:04.113Z,19.80
2022-10-15T02:07:08.810Z,11.85
2022-10-15T02:12:18.006Z,11.57
2022-10-15T02:17:21.519Z,8.55
2022-10-15T02:22:23.508Z,9.65
2022-10-15T02:27:21.738Z,7.82
2022-10-15T02:32:22.344Z,8.02
2022-10-15T02:37:22.537Z,12.32
2022-10-15T02:42:20.524Z,10.98
2022-10-15T02:47:19.846Z,17.60
2022-10-15T02:52:17.627Z,25.05
2022-10-15T02:57:16.156Z,18.42
2022-10-15T03:02:22.832Z,11.45
2022-10-15T03:07:26.833Z,10.00
2022-10-15T03:12:33.167Z,12.73
2022-10-15T03:17:58.973Z,8.63
2022-10-15T03:22:56.015Z,9.10
2022-10-15T03:27:56.630Z,6.15
2022-10-15T03:33:03.733Z,8.23
2022-10-15T03:38:00.822Z,8.60
2022-10-15T03:42:58.227Z,12.95
2022-10-15T03:47:57.826Z,8.32
2022-10-15T03:53:03.702Z,11.75
2022-10-15T03:58:04.211Z,7.78
2022-10-15T04:03:08.750Z,10.25
2022-10-15T04:14:39.206Z,6.80
2022-10-15T04:25:29.995Z,12.85
2022-10-15T04:30:30.365Z,8.95
2022-10-15T04:35:36.379Z,9.88
2022-10-15T04:41:29.294Z,7.93
2022-10-15T04:46:40.576Z,10.23
2022-10-15T04:52:54.965Z,10.35
2022-10-15T04:57:33.202Z,10.98
2022-10-15T05:08:50.070Z,11.50
2022-10-15T05:14:31.488Z,12.68
2022-10-15T05:19:54.967Z,10.15
2022-10-15T05:25:18.606Z,16.77
2022-10-15T05:30:19.066Z,11.68
2022-10-15T05:35:27.065Z,14.00
2022-10-15T05:40:41.052Z,8.83
2022-10-15T05:46:19.799Z,8.93
2022-10-15T05:51:23.973Z,9.43
2022-10-15T05:56:29.233Z,11.52
2022-10-15T06:01:39.117Z,11.30
2022-10-15T06:06:42.888Z,14.93
2022-10-15T06:11:40.160Z,13.80
2022-10-15T06:17:19.192Z,15.00
2022-10-15T06:22:23.061Z,13.93
2022-10-15T06:27:20.164Z,17.23
2022-10-15T06:33:04.732Z,21.83
2022-10-15T06:38:05.919Z,19.67
2022-10-15T06:43:07.990Z,28.08
2022-10-15T06:48:08.448Z,25.05
2022-10-15T06:53:08.126Z,21.50
2022-10-15T06:58:16.270Z,19.73
2022-10-15T07:03:15.438Z,17.50
2022-10-15T07:08:22.365Z,18.13
2022-10-15T07:13:24.393Z,22.67
2022-10-15T07:18:22.302Z,24.73
2022-10-15T07:23:27.743Z,25.35
2022-10-15T07:28:54.955Z,29.33
2022-10-15T07:34:24.227Z,33.45
2022-10-15T07:39:23.704Z,13.15
2022-10-15T07:44:23.999Z,17.85
2022-10-15T07:49:22.919Z,14.70
2022-10-15T07:54:24.226Z,9.50
2022-10-15T07:59:24.790Z,15.75
2022-10-15T08:04:22.119Z,13.18
2022-10-15T08:09:31.973Z,15.93
2022-10-15T08:19:43.753Z,14.93
2022-10-15T08:24:44.162Z,14.18
2022-10-15T08:29:42.455Z,14.38
2022-10-15T08:34:47.635Z,14.52
2022-10-15T08:39:50.611Z,15.27
2022-10-15T08:45:28.061Z,14.38
2022-10-15T08:50:54.105Z,16.92
2022-10-15T09:00:57.838Z,14.82
2022-10-15T09:06:07.483Z,16.35
2022-10-15T09:11:39.246Z,12.18
2022-10-15T09:16:43.151Z,18.95
2022-10-15T09:21:43.837Z,21.08
2022-10-15T09:27:23.401Z,21.80
2022-10-15T09:32:34.752Z,10.82
2022-10-15T09:37:38.669Z,14.77
2022-10-15T09:42:43.891Z,8.82
2022-10-15T09:48:24.677Z,10.68
2022-10-15T09:59:33.411Z,12.38
2022-10-15T10:10:33.560Z,19.30
2022-10-15T10:15:38.917Z,12.73
2022-10-15T10:21:17.179Z,8.95
2022-10-15T10:31:36.790Z,10.02
2022-10-15T10:36:40.677Z,10.95
2022-10-15T10:47:41.713Z,10.95
2022-10-15T10:52:59.451Z,6.30
2022-10-15T10:58:00.472Z,9.80
2022-10-15T11:03:03.711Z,6.55
2022-10-15T11:14:08.318Z,10.52
2022-10-15T11:20:36.278Z,14.57
2022-10-15T11:25:48.317Z,8.85
2022-10-15T11:30:59.843Z,10.40
2022-10-15T11:36:36.122Z,5.03
2022-10-15T11:41:45.444Z,8.00
2022-10-15T11:47:37.700Z,11.80
2022-10-15T11:52:48.013Z,7.15
2022-10-15T11:58:45.194Z,13.55
2022-10-15T12:04:00.591Z,9.65
2022-10-15T12:16:17.238Z,6.80
2022-10-15T12:21:38.871Z,8.20
2022-10-15T12:39:52.833Z,5.80
2022-10-15T12:45:08.810Z,8.07
2022-10-15T12:50:57.358Z,9.20
2022-10-15T12:56:15.074Z,5.13
2022-10-15T13:01:50.024Z,6.20
2022-10-15T13:07:03.555Z,9.53
2022-10-15T13:12:33.062Z,8.88
2022-10-15T13:17:31.856Z,5.10
2022-10-15T13:22:31.210Z,4.40
2022-10-15T13:27:50.036Z,4.22
2022-10-15T13:32:51.430Z,9.40
2022-10-15T13:38:18.121Z,6.22
2022-10-15T13:49:48.446Z,9.68
2022-10-15T14:01:18.978Z,7.20
2022-10-15T14:06:24.114Z,10.95
2022-10-15T14:17:25.284Z,6.47
2022-10-15T14:22:36.501Z,6.32
2022-10-15T14:27:35.494Z,6.47
2022-10-15T14:38:17.444Z,10.40
2022-10-15T14:43:19.296Z,9.77
2022-10-15T14:51:17.165Z,9.05
2022-10-15T14:55:41.650Z,12.02
2022-10-15T15:00:49.881Z,10.43
2022-10-15T15:05:54.050Z,10.45
2022-10-15T15:10:56.901Z,8.63
2022-10-15T15:15:59.442Z,8.20
2022-10-15T15:21:39.643Z,19.30
2022-10-15T15:26:37.856Z,12.07
2022-10-15T15:32:08.213Z,20.98
2022-10-15T15:37:27.133Z,15.48
2022-10-15T15:42:25.963Z,13.60
2022-10-15T15:52:51.135Z,11.68
2022-10-15T15:59:19.392Z,14.68
2022-10-15T16:04:21.975Z,13.18
2022-10-15T16:10:08.392Z,15.68
2022-10-15T16:15:17.607Z,14.93
2022-10-15T16:26:51.967Z,14.05
2022-10-15T16:37:39.058Z,17.25
2022-10-15T16:42:48.870Z,18.58
2022-10-15T16:48:03.109Z,17.05
2022-10-15T16:54:30.386Z,16.92
2022-10-15T17:00:02.031Z,17.52
2022-10-15T17:12:03.742Z,19.75
2022-10-15T17:23:13.103Z,14.82
2022-10-15T17:35:01.379Z,14.27
2022-10-15T17:47:45.449Z,21.83
2022-10-15T17:53:04.491Z,19.67
2022-10-15T17:58:31.139Z,19.58
2022-10-15T18:03:31.321Z,22.23
2022-10-15T18:08:55.844Z,19.27
2022-10-15T18:14:10.786Z,23.92
2022-10-15T18:19:48.054Z,15.85
2022-10-15T18:25:29.947Z,17.70
2022-10-15T18:30:52.480Z,18.83
2022-10-15T18:36:53.013Z,14.75
2022-10-15T18:50:02.193Z,14.52
2022-10-15T18:55:56.089Z,17.67
2022-10-15T19:01:15.138Z,18.75
2022-10-15T19:06:14.375Z,14.73
2022-10-15T19:12:08.485Z,16.80
2022-10-15T19:17:25.622Z,17.30
2022-10-15T19:23:11.329Z,12.93
2022-10-15T19:28:32.210Z,13.03
2022-10-15T19:33:46.121Z,12.73
2022-10-15T19:45:10.964Z,13.13
2022-10-15T19:51:17.462Z,18.60
2022-10-15T19:57:12.169Z,11.55
2022-10-15T20:02:15.163Z,16.92
2022-10-15T20:07:21.040Z,16.27
2022-10-15T20:12:38.092Z,17.73
2022-10-15T20:31:10.981Z,13.30
2022-10-15T20:36:42.928Z,12.85
2022-10-15T20:42:01.500Z,11.43
2022-10-15T20:47:33.914Z,17.20
2022-10-15T20:58:29.712Z,10.27
2022-10-15T21:03:30.896Z,9.75
2022-10-15T21:08:28.339Z,10.13
2022-10-15T21:14:06.614Z,8.20
2022-10-15T21:19:04.361Z,9.45
2022-10-15T21:24:06.818Z,9.13
2022-10-15T21:29:25.637Z,13.30
2022-10-15T21:34:30.060Z,7.45
2022-10-15T21:39:33.845Z,7.75
2022-10-15T21:44:40.308Z,6.43
2022-10-15T21:50:08.702Z,7.32
2022-10-15T22:00:23.375Z,6.38
2022-10-15T22:05:23.730Z,13.00
2022-10-15T22:10:36.680Z,9.45
2022-10-15T22:15:38.607Z,7.03
2022-10-15T22:20:38.834Z,8.45
2022-10-15T22:26:02.685Z,12.57
2022-10-15T22:31:07.417Z,7.85
2022-10-15T22:36:15.928Z,6.80
2022-10-15T22:41:20.607Z,12.15
2022-10-15T22:46:19.601Z,9.23
2022-10-15T22:51:18.367Z,12.95
2022-10-15T22:56:20.028Z,16.55
2022-10-15T23:01:29.722Z,15.73
2022-10-15T23:06:27.361Z,9.23
2022-10-15T23:11:29.319Z,10.75
2022-10-15T23:16:30.171Z,11.60
2022-10-15T23:21:33.570Z,15.02
2022-10-15T23:26:33.866Z,15.73
2022-10-15T23:32:14.262Z,15.13
2022-10-15T23:37:14.769Z,15.23
2022-10-15T23:42:11.996Z,13.45
2022-10-15T23:47:11.265Z,15.75
2022-10-15T23:52:18.773Z,15.68
2022-10-15T23:57:17.546Z,14.38
